Pagrindinis puslapis
METAR-TAF:

METAR-TAF

Oro uostai :

Bežos aviacijos bazė

Beža, Portugalija

platuma: 38-04-40N, ilguma: 007-55-57W, Aukštis: 193 m

Dabartinis oras

Ataskaita buvo paskelbta 1 valandą ir 1 minutes, ne 21:00 UTC
Vėjas 7 kt iš Šiaurės Vakarų
Temperatūra 19°C
Drėgmė 73%
Slėgis 1020 hPa
Matomumas 10 km arba daugiau
nėra debesų žemiau 1500 m ir nėra kamuolinių lietaus debesų

METAR: LPBJ 152100Z 31007KT CAVOK 19/14 Q1020

Laikas: 23:01 (22:01 UTC)

Prognozė

Ataskaita buvo paskelbta 4 valandos ir 58 minutes, ne 17:03 UTC
Prognozė galioja nuo 15 metu 18 UTC su 16 metu 18 UTC
Vėjas 5 kt iš Vakarų/Šiaurės Vakarų
Matomumas 10 km arba daugiau
nėra debesų žemiau 1500 m ir nėra kamuolinių lietaus debesų

TAF: LPBJ 151703Z 1518/1618 30005KT CAVOK

Orai ataskaitas ir orų prognozės (METAR, TAF).

turimą stotys yra geltonos ir raudonos taškus žemėlapyje.

Perkelti pele per norėdami pamatyti stoties vardą.

Tada spustelėkite, norėdami matyti oro stebėjimo ir prognozės.

Norėdami pakeisti žemėlapį: spustelėkite ant žalios mygtukų su juodo kryžiaus žemyn,; žalią mygtuką su brūkšneliu, jei norite nutolinti; arba žalių rodyklių gretimoms žemėlapius.


METAR-TAF: